Terminal Aerodrome Forecast
Issued by NWS Buffalo, NY

Home | Current Version | Previous Version | Text Only | Print | Product List | Glossary On
Versions: 1 2 3 4 5 6 7 8 9 10 11 12 13 14 15 16 17 18 19 20 21 22 23 24 25 26
000
FTUS41 KBUF 261120
TAFBUF
TAF
KBUF 261120Z 2612/2712 15008KT P6SM SCT100 BKN250
     FM261500 18012G18KT P6SM BKN050
     FM261800 19012G20KT P6SM VCSH OVC040
     FM262100 20010KT 4SM SHRA VCTS BKN015CB
     FM270000 24010KT P6SM VCSH OVC025
     FM270200 24012KT P6SM SCT050 BKN250
     FM270900 22012KT P6SM VCSH BKN040=

USA.gov is the U.S. government's official web portal to all federal, state and local government web resources and services.